sensor_id;sensor_type;location;lat;lon;timestamp;P1;durP1;ratioP1;P2;durP2;ratioP2
31081;SDS011;17737;52.586;13.284;2023-02-11T00:01:20;2.33;;;1.70;;
31081;SDS011;17737;52.586;13.284;2023-02-11T00:03:52;2.53;;;1.83;;
31081;SDS011;17737;52.586;13.284;2023-02-11T00:06:23;2.60;;;1.75;;
31081;SDS011;17737;52.586;13.284;2023-02-11T00:08:53;3.50;;;2.20;;
31081;SDS011;17737;52.586;13.284;2023-02-11T00:11:22;1.92;;;1.65;;
31081;SDS011;17737;52.586;13.284;2023-02-11T00:13:55;2.47;;;2.05;;
31081;SDS011;17737;52.586;13.284;2023-02-11T00:16:24;2.72;;;1.90;;
31081;SDS011;17737;52.586;13.284;2023-02-11T00:18:53;3.90;;;2.13;;
31081;SDS011;17737;52.586;13.284;2023-02-11T00:21:24;2.75;;;1.75;;
31081;SDS011;17737;52.586;13.284;2023-02-11T00:23:53;2.67;;;1.95;;
31081;SDS011;17737;52.586;13.284;2023-02-11T00:26:25;2.67;;;1.80;;
31081;SDS011;17737;52.586;13.284;2023-02-11T00:28:56;3.58;;;2.13;;
31081;SDS011;17737;52.586;13.284;2023-02-11T00:31:24;2.50;;;1.73;;
31081;SDS011;17737;52.586;13.284;2023-02-11T00:33:53;2.47;;;1.88;;
31081;SDS011;17737;52.586;13.284;2023-02-11T00:36:22;2.38;;;1.90;;
31081;SDS011;17737;52.586;13.284;2023-02-11T00:38:55;1.90;;;1.42;;
31081;SDS011;17737;52.586;13.284;2023-02-11T00:41:24;3.20;;;2.08;;
31081;SDS011;17737;52.586;13.284;2023-02-11T00:43:52;2.03;;;1.50;;
31081;SDS011;17737;52.586;13.284;2023-02-11T00:46:20;2.70;;;1.80;;
31081;SDS011;17737;52.586;13.284;2023-02-11T00:48:49;1.60;;;1.48;;
31081;SDS011;17737;52.586;13.284;2023-02-11T00:51:20;2.15;;;1.60;;
31081;SDS011;17737;52.586;13.284;2023-02-11T00:53:49;1.70;;;1.10;;
31081;SDS011;17737;52.586;13.284;2023-02-11T00:56:18;2.42;;;1.75;;
31081;SDS011;17737;52.586;13.284;2023-02-11T00:58:46;1.45;;;1.25;;
31081;SDS011;17737;52.586;13.284;2023-02-11T01:01:14;2.08;;;1.60;;
31081;SDS011;17737;52.586;13.284;2023-02-11T01:03:43;2.20;;;1.67;;
31081;SDS011;17737;52.586;13.284;2023-02-11T01:06:11;2.13;;;1.33;;
31081;SDS011;17737;52.586;13.284;2023-02-11T01:08:39;2.35;;;1.70;;
31081;SDS011;17737;52.586;13.284;2023-02-11T01:11:12;2.70;;;1.95;;
31081;SDS011;17737;52.586;13.284;2023-02-11T01:13:43;1.80;;;1.60;;
31081;SDS011;17737;52.586;13.284;2023-02-11T01:16:12;3.15;;;1.73;;
31081;SDS011;17737;52.586;13.284;2023-02-11T01:18:41;2.17;;;1.58;;
31081;SDS011;17737;52.586;13.284;2023-02-11T01:21:10;2.38;;;1.50;;
31081;SDS011;17737;52.586;13.284;2023-02-11T01:23:38;1.95;;;1.40;;
31081;SDS011;17737;52.586;13.284;2023-02-11T01:26:06;2.05;;;1.45;;
31081;SDS011;17737;52.586;13.284;2023-02-11T01:28:35;2.88;;;1.58;;
31081;SDS011;17737;52.586;13.284;2023-02-11T01:31:03;1.80;;;1.45;;
31081;SDS011;17737;52.586;13.284;2023-02-11T01:33:31;2.60;;;1.80;;
31081;SDS011;17737;52.586;13.284;2023-02-11T01:36:00;2.72;;;1.90;;
31081;SDS011;17737;52.586;13.284;2023-02-11T01:38:31;1.83;;;1.50;;
31081;SDS011;17737;52.586;13.284;2023-02-11T01:41:01;2.45;;;1.77;;
31081;SDS011;17737;52.586;13.284;2023-02-11T01:43:32;1.98;;;1.63;;
31081;SDS011;17737;52.586;13.284;2023-02-11T01:46:16;2.60;;;1.65;;
31081;SDS011;17737;52.586;13.284;2023-02-11T01:48:55;1.45;;;1.23;;
31081;SDS011;17737;52.586;13.284;2023-02-11T01:51:30;2.13;;;1.67;;
31081;SDS011;17737;52.586;13.284;2023-02-11T01:54:04;2.10;;;1.60;;
31081;SDS011;17737;52.586;13.284;2023-02-11T01:56:53;2.15;;;1.50;;
31081;SDS011;17737;52.586;13.284;2023-02-11T01:59:45;2.10;;;1.70;;
31081;SDS011;17737;52.586;13.284;2023-02-11T02:02:24;1.98;;;1.42;;
31081;SDS011;17737;52.586;13.284;2023-02-11T02:05:02;1.20;;;1.05;;
31081;SDS011;17737;52.586;13.284;2023-02-11T02:07:43;2.20;;;1.63;;
31081;SDS011;17737;52.586;13.284;2023-02-11T02:10:23;2.03;;;1.55;;
31081;SDS011;17737;52.586;13.284;2023-02-11T02:12:54;1.98;;;1.50;;
31081;SDS011;17737;52.586;13.284;2023-02-11T02:15:26;2.40;;;1.58;;
31081;SDS011;17737;52.586;13.284;2023-02-11T02:18:00;1.92;;;1.60;;
31081;SDS011;17737;52.586;13.284;2023-02-11T02:24:30;1.77;;;1.40;;
31081;SDS011;17737;52.586;13.284;2023-02-11T02:27:23;1.90;;;1.58;;
31081;SDS011;17737;52.586;13.284;2023-02-11T02:33:28;2.80;;;2.03;;
31081;SDS011;17737;52.586;13.284;2023-02-11T02:36:11;1.75;;;1.48;;
31081;SDS011;17737;52.586;13.284;2023-02-11T02:38:49;2.38;;;1.60;;
31081;SDS011;17737;52.586;13.284;2023-02-11T02:41:23;2.15;;;1.50;;
31081;SDS011;17737;52.586;13.284;2023-02-11T02:43:57;2.00;;;1.48;;
31081;SDS011;17737;52.586;13.284;2023-02-11T02:46:26;2.03;;;1.20;;
31081;SDS011;17737;52.586;13.284;2023-02-11T02:48:58;1.35;;;1.20;;
31081;SDS011;17737;52.586;13.284;2023-02-11T02:51:37;2.85;;;2.00;;
31081;SDS011;17737;52.586;13.284;2023-02-11T02:54:42;2.25;;;1.52;;
31081;SDS011;17737;52.586;13.284;2023-02-11T02:57:38;1.80;;;1.60;;
31081;SDS011;17737;52.586;13.284;2023-02-11T03:00:24;2.63;;;1.65;;
31081;SDS011;17737;52.586;13.284;2023-02-11T03:03:12;2.10;;;1.50;;
31081;SDS011;17737;52.586;13.284;2023-02-11T03:05:53;1.88;;;1.27;;
31081;SDS011;17737;52.586;13.284;2023-02-11T03:08:29;2.85;;;1.70;;
31081;SDS011;17737;52.586;13.284;2023-02-11T03:11:04;2.22;;;1.50;;
31081;SDS011;17737;52.586;13.284;2023-02-11T03:13:34;1.85;;;1.52;;
31081;SDS011;17737;52.586;13.284;2023-02-11T03:16:07;1.83;;;1.48;;
31081;SDS011;17737;52.586;13.284;2023-02-11T03:18:41;1.90;;;1.50;;
31081;SDS011;17737;52.586;13.284;2023-02-11T03:21:17;2.10;;;1.80;;
31081;SDS011;17737;52.586;13.284;2023-02-11T03:23:48;1.58;;;1.40;;
31081;SDS011;17737;52.586;13.284;2023-02-11T03:26:22;3.63;;;1.60;;
31081;SDS011;17737;52.586;13.284;2023-02-11T03:28:59;2.10;;;1.55;;
31081;SDS011;17737;52.586;13.284;2023-02-11T03:31:36;1.80;;;1.40;;
31081;SDS011;17737;52.586;13.284;2023-02-11T03:34:15;2.40;;;1.80;;
31081;SDS011;17737;52.586;13.284;2023-02-11T03:36:55;2.05;;;1.58;;
31081;SDS011;17737;52.586;13.284;2023-02-11T03:39:32;2.50;;;1.60;;
31081;SDS011;17737;52.586;13.284;2023-02-11T03:42:07;2.08;;;1.50;;
31081;SDS011;17737;52.586;13.284;2023-02-11T03:44:39;1.65;;;1.48;;
31081;SDS011;17737;52.586;13.284;2023-02-11T03:47:15;2.65;;;1.58;;
31081;SDS011;17737;52.586;13.284;2023-02-11T03:49:49;1.95;;;1.50;;
31081;SDS011;17737;52.586;13.284;2023-02-11T03:52:23;1.52;;;1.30;;
31081;SDS011;17737;52.586;13.284;2023-02-11T03:54:54;2.20;;;1.63;;
31081;SDS011;17737;52.586;13.284;2023-02-11T03:57:26;2.28;;;1.55;;
31081;SDS011;17737;52.586;13.284;2023-02-11T03:59:55;1.95;;;1.40;;
31081;SDS011;17737;52.586;13.284;2023-02-11T04:02:26;2.58;;;1.63;;
31081;SDS011;17737;52.586;13.284;2023-02-11T04:04:59;2.33;;;1.55;;
31081;SDS011;17737;52.586;13.284;2023-02-11T04:07:28;1.83;;;1.40;;
31081;SDS011;17737;52.586;13.284;2023-02-11T04:12:25;1.58;;;1.27;;
31081;SDS011;17737;52.586;13.284;2023-02-11T04:14:53;1.77;;;1.60;;
31081;SDS011;17737;52.586;13.284;2023-02-11T04:17:21;1.85;;;1.40;;
31081;SDS011;17737;52.586;13.284;2023-02-11T04:19:49;2.30;;;1.60;;
31081;SDS011;17737;52.586;13.284;2023-02-11T04:22:17;1.70;;;1.42;;
31081;SDS011;17737;52.586;13.284;2023-02-11T04:24:46;2.30;;;1.70;;
31081;SDS011;17737;52.586;13.284;2023-02-11T04:27:14;1.85;;;1.60;;
31081;SDS011;17737;52.586;13.284;2023-02-11T04:29:42;2.03;;;1.60;;
31081;SDS011;17737;52.586;13.284;2023-02-11T04:32:10;1.90;;;1.48;;
31081;SDS011;17737;52.586;13.284;2023-02-11T04:34:39;2.03;;;1.63;;
31081;SDS011;17737;52.586;13.284;2023-02-11T04:37:07;3.05;;;1.67;;
31081;SDS011;17737;52.586;13.284;2023-02-11T04:39:35;1.77;;;1.38;;
31081;SDS011;17737;52.586;13.284;2023-02-11T04:42:04;1.92;;;1.42;;
31081;SDS011;17737;52.586;13.284;2023-02-11T04:44:33;2.25;;;1.50;;
31081;SDS011;17737;52.586;13.284;2023-02-11T04:47:01;2.08;;;1.67;;
31081;SDS011;17737;52.586;13.284;2023-02-11T04:49:29;2.10;;;1.67;;
31081;SDS011;17737;52.586;13.284;2023-02-11T04:51:57;2.22;;;1.70;;
31081;SDS011;17737;52.586;13.284;2023-02-11T04:54:24;2.10;;;1.70;;
31081;SDS011;17737;52.586;13.284;2023-02-11T04:56:52;2.47;;;1.65;;
31081;SDS011;17737;52.586;13.284;2023-02-11T04:59:22;2.53;;;1.80;;
31081;SDS011;17737;52.586;13.284;2023-02-11T05:01:50;2.42;;;1.70;;
31081;SDS011;17737;52.586;13.284;2023-02-11T05:04:18;2.35;;;1.60;;
31081;SDS011;17737;52.586;13.284;2023-02-11T05:06:46;2.05;;;1.65;;
31081;SDS011;17737;52.586;13.284;2023-02-11T05:09:14;2.35;;;1.70;;
31081;SDS011;17737;52.586;13.284;2023-02-11T05:11:42;2.17;;;1.52;;
31081;SDS011;17737;52.586;13.284;2023-02-11T05:14:10;2.15;;;1.73;;
31081;SDS011;17737;52.586;13.284;2023-02-11T05:16:40;2.63;;;1.88;;
31081;SDS011;17737;52.586;13.284;2023-02-11T05:19:08;2.40;;;1.83;;
31081;SDS011;17737;52.586;13.284;2023-02-11T05:21:36;2.15;;;1.70;;
31081;SDS011;17737;52.586;13.284;2023-02-11T05:24:07;2.00;;;1.63;;
31081;SDS011;17737;52.586;13.284;2023-02-11T05:26:35;2.25;;;1.70;;
31081;SDS011;17737;52.586;13.284;2023-02-11T05:29:03;2.47;;;1.80;;
31081;SDS011;17737;52.586;13.284;2023-02-11T05:31:31;2.20;;;1.70;;
31081;SDS011;17737;52.586;13.284;2023-02-11T05:34:00;2.58;;;1.67;;
31081;SDS011;17737;52.586;13.284;2023-02-11T05:36:29;2.88;;;1.98;;
31081;SDS011;17737;52.586;13.284;2023-02-11T05:38:58;2.50;;;1.70;;
31081;SDS011;17737;52.586;13.284;2023-02-11T05:41:26;2.45;;;1.63;;
31081;SDS011;17737;52.586;13.284;2023-02-11T05:43:54;2.75;;;1.88;;
31081;SDS011;17737;52.586;13.284;2023-02-11T05:46:22;2.25;;;1.80;;
31081;SDS011;17737;52.586;13.284;2023-02-11T05:48:50;2.35;;;1.67;;
31081;SDS011;17737;52.586;13.284;2023-02-11T05:51:20;2.40;;;1.80;;
31081;SDS011;17737;52.586;13.284;2023-02-11T05:53:48;2.78;;;1.70;;
31081;SDS011;17737;52.586;13.284;2023-02-11T05:56:16;2.58;;;1.75;;
31081;SDS011;17737;52.586;13.284;2023-02-11T05:58:43;2.03;;;1.63;;
31081;SDS011;17737;52.586;13.284;2023-02-11T06:01:11;2.78;;;1.80;;
31081;SDS011;17737;52.586;13.284;2023-02-11T06:03:39;2.72;;;2.08;;
31081;SDS011;17737;52.586;13.284;2023-02-11T06:06:08;2.45;;;1.88;;
31081;SDS011;17737;52.586;13.284;2023-02-11T06:08:39;2.33;;;1.77;;
31081;SDS011;17737;52.586;13.284;2023-02-11T06:11:08;2.22;;;1.77;;
31081;SDS011;17737;52.586;13.284;2023-02-11T06:13:36;1.95;;;1.60;;
31081;SDS011;17737;52.586;13.284;2023-02-11T06:16:04;2.22;;;1.75;;
31081;SDS011;17737;52.586;13.284;2023-02-11T06:18:32;2.20;;;1.60;;
31081;SDS011;17737;52.586;13.284;2023-02-11T06:21:00;2.47;;;1.77;;
31081;SDS011;17737;52.586;13.284;2023-02-11T06:23:28;2.42;;;1.67;;
31081;SDS011;17737;52.586;13.284;2023-02-11T06:26:01;2.17;;;1.75;;
31081;SDS011;17737;52.586;13.284;2023-02-11T06:28:29;2.22;;;1.80;;
31081;SDS011;17737;52.586;13.284;2023-02-11T06:31:03;2.85;;;2.20;;
31081;SDS011;17737;52.586;13.284;2023-02-11T06:33:32;2.05;;;1.63;;
31081;SDS011;17737;52.586;13.284;2023-02-11T06:36:01;2.72;;;1.70;;
31081;SDS011;17737;52.586;13.284;2023-02-11T06:38:31;2.28;;;1.80;;
31081;SDS011;17737;52.586;13.284;2023-02-11T06:41:00;1.95;;;1.40;;
31081;SDS011;17737;52.586;13.284;2023-02-11T06:43:28;2.17;;;1.33;;
31081;SDS011;17737;52.586;13.284;2023-02-11T06:45:56;2.20;;;1.50;;
31081;SDS011;17737;52.586;13.284;2023-02-11T06:48:24;3.05;;;1.95;;
31081;SDS011;17737;52.586;13.284;2023-02-11T06:50:52;2.80;;;2.05;;
31081;SDS011;17737;52.586;13.284;2023-02-11T06:53:20;2.85;;;1.90;;
31081;SDS011;17737;52.586;13.284;2023-02-11T06:55:48;2.55;;;1.98;;
31081;SDS011;17737;52.586;13.284;2023-02-11T06:58:18;2.50;;;1.80;;
31081;SDS011;17737;52.586;13.284;2023-02-11T07:03:14;3.05;;;1.63;;
31081;SDS011;17737;52.586;13.284;2023-02-11T07:05:42;2.70;;;1.73;;
31081;SDS011;17737;52.586;13.284;2023-02-11T07:08:11;2.03;;;1.55;;
31081;SDS011;17737;52.586;13.284;2023-02-11T07:10:39;2.47;;;1.60;;
31081;SDS011;17737;52.586;13.284;2023-02-11T07:13:07;3.03;;;2.15;;
31081;SDS011;17737;52.586;13.284;2023-02-11T07:15:36;3.30;;;2.00;;
31081;SDS011;17737;52.586;13.284;2023-02-11T07:18:04;2.72;;;2.00;;
31081;SDS011;17737;52.586;13.284;2023-02-11T07:20:32;2.42;;;1.80;;
31081;SDS011;17737;52.586;13.284;2023-02-11T07:23:00;3.10;;;1.95;;
31081;SDS011;17737;52.586;13.284;2023-02-11T07:25:28;2.33;;;1.80;;
31081;SDS011;17737;52.586;13.284;2023-02-11T07:27:56;2.45;;;1.65;;
31081;SDS011;17737;52.586;13.284;2023-02-11T07:30:24;2.33;;;1.45;;
31081;SDS011;17737;52.586;13.284;2023-02-11T07:32:54;2.70;;;1.90;;
31081;SDS011;17737;52.586;13.284;2023-02-11T07:35:23;2.13;;;1.55;;
31081;SDS011;17737;52.586;13.284;2023-02-11T07:37:51;2.28;;;1.75;;
31081;SDS011;17737;52.586;13.284;2023-02-11T07:40:19;2.22;;;1.42;;
31081;SDS011;17737;52.586;13.284;2023-02-11T07:42:47;2.25;;;1.52;;
31081;SDS011;17737;52.586;13.284;2023-02-11T07:45:15;2.47;;;1.95;;
31081;SDS011;17737;52.586;13.284;2023-02-11T07:47:43;2.30;;;1.70;;
31081;SDS011;17737;52.586;13.284;2023-02-11T07:52:43;1.90;;;1.33;;
31081;SDS011;17737;52.586;13.284;2023-02-11T07:55:11;1.58;;;1.38;;
31081;SDS011;17737;52.586;13.284;2023-02-11T07:57:39;2.15;;;1.48;;
31081;SDS011;17737;52.586;13.284;2023-02-11T08:00:07;2.15;;;1.50;;
31081;SDS011;17737;52.586;13.284;2023-02-11T08:02:37;2.33;;;1.50;;
31081;SDS011;17737;52.586;13.284;2023-02-11T08:05:05;2.10;;;1.40;;
31081;SDS011;17737;52.586;13.284;2023-02-11T08:07:35;1.92;;;1.38;;
31081;SDS011;17737;52.586;13.284;2023-02-11T08:10:03;2.63;;;1.60;;
31081;SDS011;17737;52.586;13.284;2023-02-11T08:12:35;2.10;;;1.58;;
31081;SDS011;17737;52.586;13.284;2023-02-11T08:15:03;2.25;;;1.50;;
31081;SDS011;17737;52.586;13.284;2023-02-11T08:17:33;2.05;;;1.40;;
31081;SDS011;17737;52.586;13.284;2023-02-11T08:22:29;1.52;;;1.30;;
31081;SDS011;17737;52.586;13.284;2023-02-11T08:25:00;2.30;;;1.77;;
31081;SDS011;17737;52.586;13.284;2023-02-11T08:29:56;1.88;;;1.55;;
31081;SDS011;17737;52.586;13.284;2023-02-11T08:32:25;1.52;;;1.30;;
31081;SDS011;17737;52.586;13.284;2023-02-11T08:34:53;2.05;;;1.58;;
31081;SDS011;17737;52.586;13.284;2023-02-11T08:37:24;2.15;;;1.45;;
31081;SDS011;17737;52.586;13.284;2023-02-11T08:39:52;1.88;;;1.50;;
31081;SDS011;17737;52.586;13.284;2023-02-11T08:42:22;2.28;;;1.63;;
31081;SDS011;17737;52.586;13.284;2023-02-11T08:44:50;2.60;;;1.60;;
31081;SDS011;17737;52.586;13.284;2023-02-11T08:47:18;1.92;;;1.55;;
31081;SDS011;17737;52.586;13.284;2023-02-11T08:49:46;1.67;;;1.30;;
31081;SDS011;17737;52.586;13.284;2023-02-11T08:52:14;2.10;;;1.50;;
31081;SDS011;17737;52.586;13.284;2023-02-11T08:54:42;1.90;;;1.38;;
31081;SDS011;17737;52.586;13.284;2023-02-11T08:57:10;2.08;;;1.50;;
31081;SDS011;17737;52.586;13.284;2023-02-11T08:59:39;2.65;;;1.40;;
31081;SDS011;17737;52.586;13.284;2023-02-11T09:02:08;1.73;;;1.40;;
31081;SDS011;17737;52.586;13.284;2023-02-11T09:04:39;1.63;;;1.20;;
31081;SDS011;17737;52.586;13.284;2023-02-11T09:07:07;1.17;;;1.02;;
31081;SDS011;17737;52.586;13.284;2023-02-11T09:09:35;1.80;;;1.33;;
31081;SDS011;17737;52.586;13.284;2023-02-11T09:12:03;1.90;;;1.30;;
31081;SDS011;17737;52.586;13.284;2023-02-11T09:14:32;1.50;;;1.20;;
31081;SDS011;17737;52.586;13.284;2023-02-11T09:17:01;2.13;;;1.40;;
31081;SDS011;17737;52.586;13.284;2023-02-11T09:19:29;1.52;;;1.30;;
31081;SDS011;17737;52.586;13.284;2023-02-11T09:21:57;1.95;;;1.33;;
31081;SDS011;17737;52.586;13.284;2023-02-11T09:24:25;1.40;;;1.25;;
31081;SDS011;17737;52.586;13.284;2023-02-11T09:26:53;1.90;;;1.40;;
31081;SDS011;17737;52.586;13.284;2023-02-11T09:29:21;1.73;;;1.20;;
31081;SDS011;17737;52.586;13.284;2023-02-11T09:31:50;2.60;;;1.70;;
31081;SDS011;17737;52.586;13.284;2023-02-11T09:34:19;1.88;;;1.35;;
31081;SDS011;17737;52.586;13.284;2023-02-11T09:36:47;1.70;;;1.38;;
31081;SDS011;17737;52.586;13.284;2023-02-11T09:39:16;1.42;;;1.25;;
31081;SDS011;17737;52.586;13.284;2023-02-11T09:41:51;1.20;;;1.10;;
31081;SDS011;17737;52.586;13.284;2023-02-11T09:44:46;1.83;;;1.30;;
31081;SDS011;17737;52.586;13.284;2023-02-11T09:47:20;1.70;;;1.20;;
31081;SDS011;17737;52.586;13.284;2023-02-11T09:49:59;1.85;;;1.40;;
31081;SDS011;17737;52.586;13.284;2023-02-11T09:52:35;4.07;;;1.50;;
31081;SDS011;17737;52.586;13.284;2023-02-11T09:57:47;1.20;;;1.00;;
31081;SDS011;17737;52.586;13.284;2023-02-11T10:00:17;2.10;;;1.20;;
31081;SDS011;17737;52.586;13.284;2023-02-11T10:02:57;1.55;;;1.20;;
31081;SDS011;17737;52.586;13.284;2023-02-11T10:05:51;1.70;;;1.40;;
31081;SDS011;17737;52.586;13.284;2023-02-11T10:08:45;2.40;;;1.50;;
31081;SDS011;17737;52.586;13.284;2023-02-11T10:11:30;1.95;;;1.27;;
31081;SDS011;17737;52.586;13.284;2023-02-11T10:14:17;1.67;;;1.15;;
31081;SDS011;17737;52.586;13.284;2023-02-11T10:17:15;1.30;;;1.00;;
31081;SDS011;17737;52.586;13.284;2023-02-11T10:20:02;1.90;;;1.20;;
31081;SDS011;17737;52.586;13.284;2023-02-11T10:22:49;2.15;;;1.40;;
31081;SDS011;17737;52.586;13.284;2023-02-11T10:25:22;1.52;;;1.13;;
31081;SDS011;17737;52.586;13.284;2023-02-11T10:27:56;1.52;;;1.13;;
31081;SDS011;17737;52.586;13.284;2023-02-11T10:30:30;1.45;;;1.10;;
31081;SDS011;17737;52.586;13.284;2023-02-11T10:33:05;1.42;;;1.20;;
31081;SDS011;17737;52.586;13.284;2023-02-11T10:35:46;1.88;;;1.13;;
31081;SDS011;17737;52.586;13.284;2023-02-11T10:38:16;2.40;;;1.30;;
31081;SDS011;17737;52.586;13.284;2023-02-11T10:40:44;2.40;;;1.30;;
31081;SDS011;17737;52.586;13.284;2023-02-11T10:43:12;2.20;;;1.10;;
31081;SDS011;17737;52.586;13.284;2023-02-11T10:45:43;2.08;;;1.30;;
31081;SDS011;17737;52.586;13.284;2023-02-11T10:51:11;1.27;;;1.00;;
31081;SDS011;17737;52.586;13.284;2023-02-11T10:53:46;1.98;;;1.40;;
31081;SDS011;17737;52.586;13.284;2023-02-11T10:56:21;2.35;;;1.45;;
31081;SDS011;17737;52.586;13.284;2023-02-11T10:58:53;1.65;;;1.20;;
31081;SDS011;17737;52.586;13.284;2023-02-11T11:01:36;1.67;;;1.10;;
31081;SDS011;17737;52.586;13.284;2023-02-11T11:04:21;1.15;;;0.95;;
31081;SDS011;17737;52.586;13.284;2023-02-11T11:07:12;1.98;;;1.17;;
31081;SDS011;17737;52.586;13.284;2023-02-11T11:09:50;1.73;;;1.17;;
31081;SDS011;17737;52.586;13.284;2023-02-11T11:12:26;1.73;;;1.30;;
31081;SDS011;17737;52.586;13.284;2023-02-11T11:15:12;2.05;;;1.25;;
31081;SDS011;17737;52.586;13.284;2023-02-11T11:17:46;2.22;;;1.23;;
31081;SDS011;17737;52.586;13.284;2023-02-11T11:20:19;1.40;;;1.10;;
31081;SDS011;17737;52.586;13.284;2023-02-11T11:22:53;1.20;;;1.10;;
31081;SDS011;17737;52.586;13.284;2023-02-11T11:25:43;1.40;;;1.20;;
31081;SDS011;17737;52.586;13.284;2023-02-11T11:28:28;0.93;;;0.80;;
31081;SDS011;17737;52.586;13.284;2023-02-11T11:31:04;1.10;;;1.00;;
31081;SDS011;17737;52.586;13.284;2023-02-11T11:33:40;1.23;;;0.90;;
31081;SDS011;17737;52.586;13.284;2023-02-11T11:36:11;1.80;;;1.10;;
31081;SDS011;17737;52.586;13.284;2023-02-11T11:38:44;1.17;;;1.05;;
31081;SDS011;17737;52.586;13.284;2023-02-11T11:41:21;1.42;;;1.10;;
31081;SDS011;17737;52.586;13.284;2023-02-11T11:44:02;1.63;;;1.00;;
31081;SDS011;17737;52.586;13.284;2023-02-11T11:46:50;1.00;;;0.90;;
31081;SDS011;17737;52.586;13.284;2023-02-11T11:49:40;1.33;;;1.05;;
31081;SDS011;17737;52.586;13.284;2023-02-11T11:52:19;0.77;;;0.77;;
31081;SDS011;17737;52.586;13.284;2023-02-11T11:55:08;1.20;;;0.85;;
31081;SDS011;17737;52.586;13.284;2023-02-11T11:57:46;1.40;;;1.10;;
31081;SDS011;17737;52.586;13.284;2023-02-11T12:00:16;1.27;;;1.00;;
31081;SDS011;17737;52.586;13.284;2023-02-11T12:02:54;0.70;;;0.70;;
31081;SDS011;17737;52.586;13.284;2023-02-11T12:06:03;1.23;;;0.80;;
31081;SDS011;17737;52.586;13.284;2023-02-11T12:08:50;1.42;;;1.00;;
31081;SDS011;17737;52.586;13.284;2023-02-11T12:11:34;1.23;;;0.90;;
31081;SDS011;17737;52.586;13.284;2023-02-11T12:14:27;0.95;;;0.82;;
31081;SDS011;17737;52.586;13.284;2023-02-11T12:17:10;1.15;;;0.80;;
31081;SDS011;17737;52.586;13.284;2023-02-11T12:19:56;0.80;;;0.80;;
31081;SDS011;17737;52.586;13.284;2023-02-11T12:22:52;0.80;;;0.80;;
31081;SDS011;17737;52.586;13.284;2023-02-11T12:25:42;1.42;;;0.93;;
31081;SDS011;17737;52.586;13.284;2023-02-11T12:28:21;0.80;;;0.70;;
31081;SDS011;17737;52.586;13.284;2023-02-11T12:31:07;1.20;;;0.93;;
31081;SDS011;17737;52.586;13.284;2023-02-11T12:33:58;0.90;;;0.70;;
31081;SDS011;17737;52.586;13.284;2023-02-11T12:36:54;0.70;;;0.70;;
31081;SDS011;17737;52.586;13.284;2023-02-11T12:39:37;1.40;;;0.90;;
31081;SDS011;17737;52.586;13.284;2023-02-11T12:42:24;1.00;;;0.75;;
31081;SDS011;17737;52.586;13.284;2023-02-11T12:45:37;0.88;;;0.80;;
31081;SDS011;17737;52.586;13.284;2023-02-11T12:48:24;1.02;;;0.80;;
31081;SDS011;17737;52.586;13.284;2023-02-11T12:51:14;0.95;;;0.93;;
31081;SDS011;17737;52.586;13.284;2023-02-11T12:56:57;1.00;;;0.70;;
31081;SDS011;17737;52.586;13.284;2023-02-11T12:59:34;0.70;;;0.60;;
31081;SDS011;17737;52.586;13.284;2023-02-11T13:02:17;1.05;;;0.70;;
31081;SDS011;17737;52.586;13.284;2023-02-11T13:05:03;0.70;;;0.63;;
31081;SDS011;17737;52.586;13.284;2023-02-11T13:07:41;1.05;;;0.57;;
31081;SDS011;17737;52.586;13.284;2023-02-11T13:10:23;0.68;;;0.68;;
31081;SDS011;17737;52.586;13.284;2023-02-11T13:12:56;0.93;;;0.80;;
31081;SDS011;17737;52.586;13.284;2023-02-11T13:15:45;0.88;;;0.68;;
31081;SDS011;17737;52.586;13.284;2023-02-11T13:18:43;0.77;;;0.75;;
31081;SDS011;17737;52.586;13.284;2023-02-11T13:21:32;0.60;;;0.60;;
31081;SDS011;17737;52.586;13.284;2023-02-11T13:24:32;0.73;;;0.70;;
31081;SDS011;17737;52.586;13.284;2023-02-11T13:27:14;0.75;;;0.75;;
31081;SDS011;17737;52.586;13.284;2023-02-11T13:30:17;0.70;;;0.70;;
31081;SDS011;17737;52.586;13.284;2023-02-11T13:33:01;0.90;;;0.80;;
31081;SDS011;17737;52.586;13.284;2023-02-11T13:35:49;1.00;;;0.80;;
31081;SDS011;17737;52.586;13.284;2023-02-11T13:38:43;0.82;;;0.75;;
31081;SDS011;17737;52.586;13.284;2023-02-11T13:41:22;0.65;;;0.65;;
31081;SDS011;17737;52.586;13.284;2023-02-11T13:46:57;0.70;;;0.70;;
31081;SDS011;17737;52.586;13.284;2023-02-11T13:49:29;0.75;;;0.60;;
31081;SDS011;17737;52.586;13.284;2023-02-11T13:52:04;0.60;;;0.60;;
31081;SDS011;17737;52.586;13.284;2023-02-11T13:54:47;0.50;;;0.50;;
31081;SDS011;17737;52.586;13.284;2023-02-11T14:03:23;0.70;;;0.70;;
31081;SDS011;17737;52.586;13.284;2023-02-11T14:06:13;0.60;;;0.60;;
31081;SDS011;17737;52.586;13.284;2023-02-11T14:09:08;0.60;;;0.60;;
31081;SDS011;17737;52.586;13.284;2023-02-11T14:21:32;0.60;;;0.60;;
31081;SDS011;17737;52.586;13.284;2023-02-11T14:27:17;0.50;;;0.50;;
31081;SDS011;17737;52.586;13.284;2023-02-11T14:30:08;0.80;;;0.80;;
31081;SDS011;17737;52.586;13.284;2023-02-11T14:33:00;1.05;;;0.65;;
31081;SDS011;17737;52.586;13.284;2023-02-11T14:36:04;0.65;;;0.65;;
31081;SDS011;17737;52.586;13.284;2023-02-11T14:38:56;0.77;;;0.68;;
31081;SDS011;17737;52.586;13.284;2023-02-11T14:41:39;0.50;;;0.50;;
31081;SDS011;17737;52.586;13.284;2023-02-11T14:44:13;0.57;;;0.57;;
31081;SDS011;17737;52.586;13.284;2023-02-11T14:46:47;0.70;;;0.70;;
31081;SDS011;17737;52.586;13.284;2023-02-11T14:49:22;0.75;;;0.75;;
31081;SDS011;17737;52.586;13.284;2023-02-11T14:51:55;0.55;;;0.55;;
31081;SDS011;17737;52.586;13.284;2023-02-11T14:54:32;0.35;;;0.35;;
31081;SDS011;17737;52.586;13.284;2023-02-11T14:57:06;0.63;;;0.60;;
31081;SDS011;17737;52.586;13.284;2023-02-11T14:59:38;0.70;;;0.60;;
31081;SDS011;17737;52.586;13.284;2023-02-11T15:02:27;0.45;;;0.45;;
31081;SDS011;17737;52.586;13.284;2023-02-11T15:05:16;0.60;;;0.60;;
31081;SDS011;17737;52.586;13.284;2023-02-11T15:07:52;0.60;;;0.60;;
31081;SDS011;17737;52.586;13.284;2023-02-11T15:10:25;0.57;;;0.57;;
31081;SDS011;17737;52.586;13.284;2023-02-11T15:12:59;0.60;;;0.60;;
31081;SDS011;17737;52.586;13.284;2023-02-11T15:15:29;0.73;;;0.50;;
31081;SDS011;17737;52.586;13.284;2023-02-11T15:18:04;0.60;;;0.60;;
31081;SDS011;17737;52.586;13.284;2023-02-11T15:20:34;0.70;;;0.70;;
31081;SDS011;17737;52.586;13.284;2023-02-11T15:23:03;0.50;;;0.50;;
31081;SDS011;17737;52.586;13.284;2023-02-11T15:25:41;0.70;;;0.70;;
31081;SDS011;17737;52.586;13.284;2023-02-11T15:41:05;0.60;;;0.60;;
31081;SDS011;17737;52.586;13.284;2023-02-11T15:43:41;0.50;;;0.50;;
31081;SDS011;17737;52.586;13.284;2023-02-11T15:46:12;0.40;;;0.40;;
31081;SDS011;17737;52.586;13.284;2023-02-11T15:48:46;0.80;;;0.65;;
31081;SDS011;17737;52.586;13.284;2023-02-11T15:51:18;0.40;;;0.40;;
31081;SDS011;17737;52.586;13.284;2023-02-11T15:53:51;0.40;;;0.40;;
31081;SDS011;17737;52.586;13.284;2023-02-11T15:56:26;0.65;;;0.55;;
31081;SDS011;17737;52.586;13.284;2023-02-11T15:58:58;0.50;;;0.50;;
31081;SDS011;17737;52.586;13.284;2023-02-11T16:01:39;0.60;;;0.60;;
31081;SDS011;17737;52.586;13.284;2023-02-11T16:04:12;0.60;;;0.60;;
31081;SDS011;17737;52.586;13.284;2023-02-11T16:06:58;0.70;;;0.70;;
31081;SDS011;17737;52.586;13.284;2023-02-11T16:09:32;0.55;;;0.45;;
31081;SDS011;17737;52.586;13.284;2023-02-11T16:12:05;0.35;;;0.35;;
31081;SDS011;17737;52.586;13.284;2023-02-11T16:14:52;0.40;;;0.40;;
31081;SDS011;17737;52.586;13.284;2023-02-11T16:17:22;0.50;;;0.50;;
31081;SDS011;17737;52.586;13.284;2023-02-11T16:19:54;0.60;;;0.60;;